Terminal Aerodrome Forecast
Issued by NWS Cleveland, OH

Home | Current Version | Previous Version | Graphics & Text | Print | Product List | Glossary On
Versions: 1 2 3 4 5 6 7 8 9 10 11 12 13
000
FTUS41 KCLE 181700
TAFERI
TAF
KERI 181724Z 1818/1918 28010G20KT P6SM BKN200
     FM190200 36007KT P6SM BKN035
     FM190900 02006KT P6SM SCT030=

USA.gov is the U.S. government's official web portal to all federal, state and local government web resources and services.